Back to Top

Language: 

My Weather Underground Personal Weather Station Historical Data with Graphs...

Delerius Weather Station Historical Data
Daily Summary for December 8, 2017 Units:  English    Metric   Both
« Previous Day
Next Day »
Daily Weekly Monthly Yearly Custom
  High: Low: Average:
Temperature: 39.7 °F 32.5 °F 35.4 °F
Dew Point: 34.2 °F 25.8 °F 28.3 °F
Humidity: 93 % 63 % 75 %
Wind Speed: 17.0 mph 1.0 mph 10.5 mph
Wind Gust: 30.0 mph - -
Wind:- - WNW
Pressure: 30.02 in 29.73 in -
Precipitation: 0.04 in    
Historical Graphs
 
 
Tabular Data for December 8, 2017
Time Temperature Dew Point Pressure Wind Wind Speed Wind Gust Humidity Rainfall Rate (Hourly) solar Conditions
00:00 36.7 °F 32.9 °F 29.75 in NW 7.0 mph 10.0 mph 86 % 0.01 in 0 W/m2
00:05 36.1 °F 32.6 °F 29.75 in NW 4.0 mph 8.0 mph 87 % 0.01 in 0 W/m2
00:10 35.6 °F 32.4 °F 29.75 in WNW 5.0 mph 10.0 mph 88 % 0.02 in 0 W/m2
00:15 35.2 °F 32.3 °F 29.74 in WNW 6.0 mph 9.0 mph 89 % 0.02 in 0 W/m2
00:20 34.9 °F 32.2 °F 29.74 in West 5.0 mph 9.0 mph 90 % 0.02 in 0 W/m2
00:25 34.9 °F 32.2 °F 29.74 in West 5.0 mph 9.0 mph 90 % 0.02 in 0 W/m2
00:30 34.9 °F 32.5 °F 29.74 in West 1.0 mph 4.0 mph 91 % 0.02 in 0 W/m2
00:35 34.9 °F 32.5 °F 29.74 in West 2.0 mph 4.0 mph 91 % 0.02 in 0 W/m2
00:40 34.9 °F 32.8 °F 29.74 in West 1.0 mph 4.0 mph 92 % 0.03 in 0 W/m2
00:45 34.9 °F 32.8 °F 29.74 in WNW 4.0 mph 12.0 mph 92 % 0.03 in 0 W/m2
00:50 35.2 °F 33.4 °F 29.74 in WNW 10.0 mph 14.0 mph 93 % 0.03 in 0 W/m2
00:55 35.4 °F 33.6 °F 29.74 in WNW 10.0 mph 13.0 mph 93 % 0.03 in 0 W/m2
01:00 35.8 °F 34.0 °F 29.74 in WNW 11.0 mph 18.0 mph 93 % 0.03 in 0 W/m2
01:05 36.0 °F 34.1 °F 29.73 in WNW 10.0 mph 15.0 mph 93 % 0.03 in 0 W/m2
01:10 36.1 °F 34.0 °F 29.73 in WNW 12.0 mph 20.0 mph 92 % 0.02 in 0 W/m2
01:15 36.3 °F 34.2 °F 29.73 in WNW 11.0 mph 16.0 mph 92 % 0.02 in 0 W/m2
01:20 36.3 °F 34.2 °F 29.73 in West 11.0 mph 15.0 mph 92 % 0.03 in 0 W/m2
01:25 36.3 °F 34.2 °F 29.73 in WNW 12.0 mph 18.0 mph 92 % 0.02 in 0 W/m2
01:30 36.5 °F 34.1 °F 29.73 in West 12.0 mph 20.0 mph 91 % 0.02 in 0 W/m2
01:35 36.3 °F 33.9 °F 29.73 in WNW 10.0 mph 19.0 mph 91 % 0.02 in 0 W/m2
01:40 36.3 °F 33.9 °F 29.73 in WNW 12.0 mph 20.0 mph 91 % 0.02 in 0 W/m2
01:45 36.3 °F 33.9 °F 29.73 in WNW 14.0 mph 21.0 mph 91 % 0.02 in 0 W/m2
01:50 36.3 °F 33.9 °F 29.74 in WNW 11.0 mph 16.0 mph 91 % 0.02 in 0 W/m2
01:55 36.1 °F 33.8 °F 29.74 in WNW 12.0 mph 16.0 mph 91 % 0.01 in 0 W/m2
09:14 34.2 °F 28.6 °F 29.89 in West 9.0 mph 10.0 mph 80 % 0.00 in 33 W/m2
09:15 34.2 °F 28.6 °F 29.89 in WNW 11.0 mph 16.0 mph 80 % 0.00 in 33 W/m2
09:25 34.3 °F 28.8 °F 29.89 in WNW 11.0 mph 18.0 mph 80 % 0.00 in 128 W/m2
09:30 34.5 °F 29.0 °F 29.89 in WNW 14.0 mph 21.0 mph 80 % 0.00 in 137 W/m2
09:35 35.1 °F 29.2 °F 29.89 in WNW 10.0 mph 18.0 mph 79 % 0.00 in 144 W/m2
09:40 35.2 °F 29.1 °F 29.90 in WNW 12.0 mph 18.0 mph 78 % 0.00 in 149 W/m2
09:45 35.4 °F 29.2 °F 29.90 in West 14.0 mph 25.0 mph 78 % 0.00 in 158 W/m2
09:50 35.6 °F 29.4 °F 29.90 in WNW 13.0 mph 21.0 mph 78 % 0.00 in 163 W/m2
09:55 35.8 °F 29.3 °F 29.90 in WNW 13.0 mph 22.0 mph 77 % 0.00 in 171 W/m2
10:00 36.0 °F 29.4 °F 29.91 in WNW 13.0 mph 21.0 mph 77 % 0.00 in 178 W/m2
10:06 36.1 °F 29.3 °F 29.91 in WNW 14.0 mph 25.0 mph 76 % 0.00 in 183 W/m2
10:11 36.1 °F 29.0 °F 29.91 in WNW 13.0 mph 22.0 mph 75 % 0.00 in 192 W/m2
10:16 36.3 °F 28.8 °F 29.92 in WNW 12.0 mph 20.0 mph 74 % 0.00 in 195 W/m2
10:26 36.7 °F 28.8 °F 29.92 in WNW 11.0 mph 22.0 mph 73 % 0.00 in 206 W/m2
10:31 36.9 °F 28.7 °F 29.92 in WNW 15.0 mph 25.0 mph 72 % 0.00 in 211 W/m2
10:36 37.0 °F 28.8 °F 29.92 in WNW 12.0 mph 20.0 mph 72 % 0.00 in 214 W/m2
10:46 37.6 °F 29.4 °F 29.92 in WNW 13.0 mph 23.0 mph 72 % 0.00 in 225 W/m2
10:51 37.6 °F 29.0 °F 29.92 in WNW 14.0 mph 23.0 mph 71 % 0.00 in 229 W/m2
10:56 37.8 °F 29.5 °F 29.92 in WNW 16.0 mph 24.0 mph 72 % 0.00 in 234 W/m2
11:01 37.9 °F 29.7 °F 29.92 in WNW 13.0 mph 24.0 mph 72 % 0.00 in 237 W/m2
11:06 37.9 °F 29.7 °F 29.92 in WNW 13.0 mph 20.0 mph 72 % 0.00 in 241 W/m2
11:11 38.1 °F 30.2 °F 29.92 in WNW 13.0 mph 21.0 mph 73 % 0.00 in 244 W/m2
11:16 38.3 °F 30.4 °F 29.93 in WNW 17.0 mph 30.0 mph 73 % 0.00 in 244 W/m2
11:21 38.5 °F 30.6 °F 29.92 in WNW 14.0 mph 22.0 mph 73 % 0.00 in 246 W/m2
11:31 38.7 °F 30.1 °F 29.92 in WNW 15.0 mph 25.0 mph 71 % 0.00 in 251 W/m2
11:41 39.0 °F 30.1 °F 29.93 in WNW 14.0 mph 22.0 mph 70 % 0.00 in 251 W/m2
11:46 39.0 °F 30.1 °F 29.93 in WNW 10.0 mph 18.0 mph 70 % 0.00 in 255 W/m2
11:51 39.4 °F 30.4 °F 29.93 in WNW 12.0 mph 21.0 mph 70 % 0.00 in 255 W/m2
12:01 39.2 °F 29.9 °F 29.93 in WNW 12.0 mph 21.0 mph 69 % 0.00 in 255 W/m2
12:04 39.0 °F 29.3 °F 29.94 in WNW 16.0 mph 28.0 mph 68 % 0.00 in 255 W/m2
12:09 39.0 °F 29.0 °F 29.93 in NW 15.0 mph 23.0 mph 67 % 0.00 in 255 W/m2
12:14 39.0 °F 29.0 °F 29.93 in WNW 16.0 mph 28.0 mph 67 % 0.00 in 253 W/m2
12:19 39.2 °F 29.5 °F 29.93 in WNW 12.0 mph 19.0 mph 68 % 0.00 in 251 W/m2
12:24 39.4 °F 29.3 °F 29.93 in WNW 15.0 mph 20.0 mph 67 % 0.00 in 248 W/m2
12:29 39.4 °F 29.3 °F 29.93 in WNW 15.0 mph 24.0 mph 67 % 0.00 in 250 W/m2
12:34 39.4 °F 29.3 °F 29.93 in WNW 12.0 mph 18.0 mph 67 % 0.00 in 248 W/m2
12:39 39.4 °F 29.0 °F 29.93 in WNW 14.0 mph 22.0 mph 66 % 0.00 in 241 W/m2
12:44 39.6 °F 29.5 °F 29.93 in WNW 13.0 mph 21.0 mph 67 % 0.00 in 241 W/m2
12:49 39.7 °F 29.3 °F 29.93 in NW 13.0 mph 21.0 mph 66 % 0.00 in 234 W/m2
12:54 39.6 °F 29.1 °F 29.94 in WNW 13.0 mph 22.0 mph 66 % 0.00 in 234 W/m2
12:59 39.7 °F 29.3 °F 29.94 in WNW 11.0 mph 16.0 mph 66 % 0.00 in 227 W/m2
13:04 39.7 °F 29.3 °F 29.94 in WNW 14.0 mph 22.0 mph 66 % 0.00 in 223 W/m2
13:09 39.6 °F 28.4 °F 29.94 in WNW 16.0 mph 25.0 mph 64 % 0.00 in 220 W/m2
13:14 39.4 °F 28.2 °F 29.94 in WNW 13.0 mph 20.0 mph 64 % 0.00 in 214 W/m2
13:19 39.4 °F 28.6 °F 29.94 in WNW 13.0 mph 21.0 mph 65 % 0.00 in 209 W/m2
13:24 39.4 °F 28.6 °F 29.94 in WNW 13.0 mph 20.0 mph 65 % 0.00 in 204 W/m2
13:29 39.4 °F 28.6 °F 29.94 in WNW 10.0 mph 16.0 mph 65 % 0.00 in 199 W/m2
13:34 39.4 °F 28.6 °F 29.94 in WNW 11.0 mph 19.0 mph 65 % 0.00 in 193 W/m2
13:39 39.4 °F 27.8 °F 29.95 in WNW 15.0 mph 24.0 mph 63 % 0.00 in 188 W/m2
13:44 39.2 °F 28.0 °F 29.95 in WNW 11.0 mph 15.0 mph 64 % 0.00 in 183 W/m2
13:46 39.4 °F 28.2 °F 29.94 in WNW 10.0 mph 18.0 mph 64 % 0.00 in 181 W/m2
13:51 39.0 °F 27.5 °F 29.94 in WNW 12.0 mph 23.0 mph 63 % 0.00 in 176 W/m2
13:56 39.0 °F 27.5 °F 29.94 in WNW 15.0 mph 25.0 mph 63 % 0.00 in 167 W/m2
14:01 38.8 °F 27.7 °F 29.95 in WNW 15.0 mph 22.0 mph 64 % 0.00 in 156 W/m2
14:06 38.8 °F 28.1 °F 29.95 in NW 13.0 mph 23.0 mph 65 % 0.00 in 151 W/m2
14:11 38.7 °F 27.9 °F 29.95 in WNW 14.0 mph 23.0 mph 65 % 0.00 in 141 W/m2
14:16 38.7 °F 28.3 °F 29.95 in WNW 8.0 mph 12.0 mph 66 % 0.00 in 132 W/m2
14:21 38.7 °F 27.9 °F 29.95 in NW 9.0 mph 16.0 mph 65 % 0.00 in 123 W/m2
14:26 38.5 °F 27.4 °F 29.95 in WNW 11.0 mph 20.0 mph 64 % 0.00 in 76 W/m2
14:36 37.9 °F 26.8 °F 29.95 in WNW 12.0 mph 19.0 mph 64 % 0.00 in 95 W/m2
14:41 37.8 °F 27.0 °F 29.96 in NW 10.0 mph 19.0 mph 65 % 0.00 in 81 W/m2
14:46 37.6 °F 27.2 °F 29.95 in WNW 12.0 mph 21.0 mph 66 % 0.00 in 21 W/m2
14:56 36.9 °F 26.9 °F 29.95 in WNW 11.0 mph 18.0 mph 67 % 0.00 in 16 W/m2
15:01 36.7 °F 26.7 °F 29.95 in WNW 13.0 mph 21.0 mph 67 % 0.00 in 14 W/m2
15:06 36.3 °F 26.8 °F 29.95 in WNW 13.0 mph 21.0 mph 68 % 0.00 in 14 W/m2
15:11 36.1 °F 26.9 °F 29.95 in WNW 14.0 mph 21.0 mph 69 % 0.00 in 14 W/m2
15:16 36.1 °F 26.9 °F 29.95 in WNW 12.0 mph 22.0 mph 69 % 0.00 in 12 W/m2
15:21 36.0 °F 27.1 °F 29.95 in WNW 14.0 mph 20.0 mph 70 % 0.00 in 12 W/m2
15:36 35.6 °F 27.5 °F 29.95 in WNW 11.0 mph 18.0 mph 72 % 0.00 in 9 W/m2
15:46 35.2 °F 27.4 °F 29.95 in WNW 10.0 mph 14.0 mph 73 % 0.00 in 5 W/m2
15:51 35.2 °F 27.8 °F 29.95 in WNW 12.0 mph 21.0 mph 74 % 0.00 in 5 W/m2
15:56 35.1 °F 27.6 °F 29.95 in WNW 11.0 mph 18.0 mph 74 % 0.00 in 0 W/m2
16:02 35.1 °F 27.6 °F 29.95 in WNW 10.0 mph 18.0 mph 74 % 0.00 in 0 W/m2
16:07 35.1 °F 27.9 °F 29.95 in WNW 11.0 mph 18.0 mph 75 % 0.00 in 0 W/m2
16:12 34.9 °F 27.8 °F 29.95 in WNW 9.0 mph 13.0 mph 75 % 0.00 in 0 W/m2
16:22 34.9 °F 27.8 °F 29.95 in WNW 10.0 mph 16.0 mph 75 % 0.00 in 0 W/m2
16:32 34.9 °F 27.8 °F 29.95 in WNW 12.0 mph 19.0 mph 75 % 0.00 in 0 W/m2
16:37 34.9 °F 28.1 °F 29.96 in WNW 10.0 mph 15.0 mph 76 % 0.00 in 0 W/m2
16:47 34.5 °F 27.7 °F 29.96 in WNW 9.0 mph 15.0 mph 76 % 0.00 in 0 W/m2
16:57 34.3 °F 27.6 °F 29.97 in WNW 9.0 mph 15.0 mph 76 % 0.00 in 0 W/m2
17:02 34.3 °F 27.6 °F 29.97 in WNW 10.0 mph 15.0 mph 76 % 0.00 in 0 W/m2
17:07 34.3 °F 27.6 °F 29.97 in WNW 9.0 mph 14.0 mph 76 % 0.00 in 0 W/m2
17:12 34.3 °F 27.6 °F 29.97 in WNW 10.0 mph 14.0 mph 76 % 0.00 in 0 W/m2
17:17 34.2 °F 27.1 °F 29.97 in WNW 12.0 mph 16.0 mph 75 % 0.00 in 0 W/m2
17:22 34.2 °F 26.7 °F 29.98 in WNW 11.0 mph 15.0 mph 74 % 0.00 in 0 W/m2
17:27 34.2 °F 26.7 °F 29.98 in WNW 10.0 mph 15.0 mph 74 % 0.00 in 0 W/m2
17:37 34.0 °F 26.6 °F 29.98 in WNW 12.0 mph 16.0 mph 74 % 0.00 in 0 W/m2
17:42 34.0 °F 26.6 °F 29.98 in WNW 8.0 mph 12.0 mph 74 % 0.00 in 0 W/m2
17:47 34.0 °F 26.6 °F 29.98 in WNW 10.0 mph 15.0 mph 74 % 0.00 in 0 W/m2
17:52 33.8 °F 26.4 °F 29.97 in WNW 11.0 mph 19.0 mph 74 % 0.00 in 0 W/m2
18:02 33.8 °F 26.7 °F 29.98 in WNW 12.0 mph 22.0 mph 75 % 0.00 in 0 W/m2
18:07 33.6 °F 26.5 °F 29.98 in WNW 9.0 mph 15.0 mph 75 % 0.00 in 0 W/m2
18:17 33.6 °F 26.5 °F 29.98 in WNW 8.0 mph 12.0 mph 75 % 0.00 in 0 W/m2
18:22 33.6 °F 26.5 °F 29.99 in WNW 9.0 mph 13.0 mph 75 % 0.00 in 0 W/m2
18:32 33.6 °F 26.5 °F 29.98 in West 11.0 mph 16.0 mph 75 % 0.00 in 0 W/m2
18:37 33.6 °F 26.5 °F 29.98 in WNW 10.0 mph 14.0 mph 75 % 0.00 in 0 W/m2
18:52 33.4 °F 26.4 °F 29.99 in WNW 10.0 mph 15.0 mph 75 % 0.00 in 0 W/m2
18:57 33.4 °F 26.4 °F 30.00 in WNW 11.0 mph 23.0 mph 75 % 0.00 in 0 W/m2
19:02 33.4 °F 26.4 °F 29.99 in WNW 10.0 mph 18.0 mph 75 % 0.00 in 0 W/m2
19:08 33.4 °F 26.4 °F 30.00 in WNW 12.0 mph 16.0 mph 75 % 0.00 in 0 W/m2
19:13 33.4 °F 26.4 °F 30.00 in WNW 10.0 mph 14.0 mph 75 % 0.00 in 0 W/m2
19:18 33.4 °F 26.4 °F 30.00 in WNW 11.0 mph 15.0 mph 75 % 0.00 in 0 W/m2
19:23 33.4 °F 26.4 °F 30.00 in WNW 11.0 mph 15.0 mph 75 % 0.00 in 0 W/m2
19:28 33.4 °F 26.4 °F 30.00 in WNW 11.0 mph 19.0 mph 75 % 0.00 in 0 W/m2
19:33 33.3 °F 25.9 °F 30.00 in WNW 8.0 mph 13.0 mph 74 % 0.00 in 0 W/m2
19:38 33.3 °F 26.2 °F 30.00 in WNW 10.0 mph 15.0 mph 75 % 0.00 in 0 W/m2
19:43 33.3 °F 26.2 °F 30.00 in WNW 12.0 mph 19.0 mph 75 % 0.00 in 0 W/m2
19:48 33.3 °F 26.2 °F 30.00 in WNW 10.0 mph 15.0 mph 75 % 0.00 in 0 W/m2
19:58 33.3 °F 26.2 °F 30.00 in WNW 10.0 mph 14.0 mph 75 % 0.00 in 0 W/m2
20:08 33.3 °F 26.2 °F 30.00 in WNW 9.0 mph 14.0 mph 75 % 0.00 in 0 W/m2
20:13 33.3 °F 26.2 °F 30.00 in WNW 10.0 mph 15.0 mph 75 % 0.00 in 0 W/m2
20:18 33.3 °F 26.2 °F 30.00 in WNW 9.0 mph 16.0 mph 75 % 0.00 in 0 W/m2
20:23 33.3 °F 26.2 °F 30.00 in West 11.0 mph 16.0 mph 75 % 0.00 in 0 W/m2
20:28 33.3 °F 26.2 °F 30.00 in WNW 9.0 mph 14.0 mph 75 % 0.00 in 0 W/m2
20:33 33.3 °F 26.2 °F 30.00 in WNW 9.0 mph 14.0 mph 75 % 0.00 in 0 W/m2
20:38 33.3 °F 26.2 °F 30.00 in WNW 9.0 mph 13.0 mph 75 % 0.00 in 0 W/m2
20:43 33.1 °F 26.3 °F 30.01 in WNW 8.0 mph 12.0 mph 76 % 0.00 in 0 W/m2
20:48 33.1 °F 26.3 °F 30.01 in WNW 8.0 mph 14.0 mph 76 % 0.00 in 0 W/m2
20:53 32.9 °F 26.2 °F 30.01 in WNW 9.0 mph 14.0 mph 76 % 0.00 in 0 W/m2
20:58 32.9 °F 26.2 °F 30.01 in WNW 9.0 mph 16.0 mph 76 % 0.00 in 0 W/m2
21:03 32.9 °F 26.2 °F 30.01 in WNW 9.0 mph 13.0 mph 76 % 0.00 in 0 W/m2
21:08 32.7 °F 26.0 °F 30.01 in WNW 9.0 mph 13.0 mph 76 % 0.00 in 0 W/m2
21:13 32.9 °F 26.2 °F 30.01 in WNW 8.0 mph 14.0 mph 76 % 0.00 in 0 W/m2
21:18 32.7 °F 26.0 °F 30.01 in WNW 7.0 mph 11.0 mph 76 % 0.00 in 0 W/m2
21:23 32.7 °F 26.0 °F 30.01 in WNW 9.0 mph 14.0 mph 76 % 0.00 in 0 W/m2
21:28 32.7 °F 26.0 °F 30.01 in WNW 6.0 mph 10.0 mph 76 % 0.00 in 0 W/m2
21:34 32.7 °F 26.0 °F 30.01 in NW 5.0 mph 8.0 mph 76 % 0.00 in 0 W/m2
21:39 32.5 °F 25.8 °F 30.01 in WNW 7.0 mph 11.0 mph 76 % 0.00 in 0 W/m2
21:44 32.5 °F 26.1 °F 30.01 in WNW 8.0 mph 13.0 mph 77 % 0.00 in 0 W/m2
21:49 32.5 °F 26.1 °F 30.01 in WNW 8.0 mph 13.0 mph 77 % 0.00 in 0 W/m2
21:54 32.5 °F 26.1 °F 30.01 in WNW 8.0 mph 16.0 mph 77 % 0.00 in 0 W/m2
21:59 32.5 °F 26.1 °F 30.00 in WNW 8.0 mph 13.0 mph 77 % 0.00 in 0 W/m2
22:04 32.7 °F 26.3 °F 30.00 in WNW 11.0 mph 19.0 mph 77 % 0.00 in 0 W/m2
22:09 32.7 °F 26.0 °F 30.00 in WNW 10.0 mph 15.0 mph 76 % 0.00 in 0 W/m2
22:14 33.1 °F 26.7 °F 30.00 in WNW 10.0 mph 16.0 mph 77 % 0.00 in 0 W/m2
22:19 32.9 °F 26.5 °F 30.00 in WNW 10.0 mph 18.0 mph 77 % 0.00 in 0 W/m2
22:24 32.9 °F 26.5 °F 30.00 in WNW 10.0 mph 14.0 mph 77 % 0.00 in 0 W/m2
22:29 32.9 °F 26.2 °F 30.00 in WNW 9.0 mph 14.0 mph 76 % 0.00 in 0 W/m2
22:34 32.9 °F 26.2 °F 30.00 in WNW 11.0 mph 15.0 mph 76 % 0.00 in 0 W/m2
22:39 32.9 °F 26.2 °F 30.01 in WNW 11.0 mph 15.0 mph 76 % 0.00 in 0 W/m2
22:44 32.9 °F 26.2 °F 30.01 in WNW 9.0 mph 13.0 mph 76 % 0.00 in 0 W/m2
22:49 32.9 °F 26.2 °F 30.01 in WNW 8.0 mph 12.0 mph 76 % 0.00 in 0 W/m2
22:54 32.7 °F 26.0 °F 30.01 in West 7.0 mph 10.0 mph 76 % 0.00 in 0 W/m2
22:59 32.7 °F 26.0 °F 30.00 in WNW 6.0 mph 10.0 mph 76 % 0.00 in 0 W/m2
23:04 32.5 °F 25.8 °F 30.01 in WNW 6.0 mph 9.0 mph 76 % 0.00 in 0 W/m2
23:09 32.5 °F 26.1 °F 30.01 in WNW 7.0 mph 12.0 mph 77 % 0.00 in 0 W/m2
23:14 32.5 °F 26.1 °F 30.02 in WNW 8.0 mph 14.0 mph 77 % 0.00 in 0 W/m2
23:19 32.5 °F 26.1 °F 30.02 in WNW 6.0 mph 9.0 mph 77 % 0.00 in 0 W/m2
23:24 32.5 °F 26.1 °F 30.01 in West 7.0 mph 11.0 mph 77 % 0.00 in 0 W/m2
23:29 32.5 °F 26.1 °F 30.01 in WNW 10.0 mph 16.0 mph 77 % 0.00 in 0 W/m2
23:34 32.7 °F 26.3 °F 30.01 in WNW 10.0 mph 16.0 mph 77 % 0.00 in 0 W/m2
23:39 32.7 °F 26.3 °F 30.01 in WNW 6.0 mph 11.0 mph 77 % 0.00 in 0 W/m2
23:44 32.7 °F 26.3 °F 30.01 in WNW 11.0 mph 20.0 mph 77 % 0.00 in 0 W/m2
23:49 32.9 °F 26.5 °F 30.01 in WNW 11.0 mph 19.0 mph 77 % 0.00 in 0 W/m2
23:54 33.1 °F 26.7 °F 30.01 in WNW 8.0 mph 14.0 mph 77 % 0.00 in 0 W/m2
23:59 33.1 °F 26.3 °F 30.01 in WNW 9.0 mph 19.0 mph 76 % 0.00 in 0 W/m2
Delerius-Weather
Compliments of Weather Underground - 1.75 mb

Data updates at regular intervals.